sensor_id;sensor_type;location;lat;lon;timestamp;P1;durP1;ratioP1;P2;durP2;ratioP2
70301;SDS011;57706;56.326;43.882;2023-04-01T00:00:54;9.20;;;3.38;;
70301;SDS011;57706;56.326;43.882;2023-04-01T00:03:22;6.60;;;3.85;;
70301;SDS011;57706;56.326;43.882;2023-04-01T00:05:48;5.80;;;3.30;;
70301;SDS011;57706;56.326;43.882;2023-04-01T00:08:14;5.63;;;3.67;;
70301;SDS011;57706;56.326;43.882;2023-04-01T00:10:40;7.18;;;3.42;;
70301;SDS011;57706;56.326;43.882;2023-04-01T00:13:06;6.88;;;3.90;;
70301;SDS011;57706;56.326;43.882;2023-04-01T00:15:33;5.75;;;3.28;;
70301;SDS011;57706;56.326;43.882;2023-04-01T00:17:59;6.68;;;3.72;;
70301;SDS011;57706;56.326;43.882;2023-04-01T00:20:26;8.65;;;4.00;;
70301;SDS011;57706;56.326;43.882;2023-04-01T00:22:52;5.90;;;3.17;;
70301;SDS011;57706;56.326;43.882;2023-04-01T00:25:18;7.75;;;3.83;;
70301;SDS011;57706;56.326;43.882;2023-04-01T00:27:44;6.85;;;4.28;;
70301;SDS011;57706;56.326;43.882;2023-04-01T00:30:10;6.72;;;3.92;;
70301;SDS011;57706;56.326;43.882;2023-04-01T00:32:36;7.47;;;4.13;;
70301;SDS011;57706;56.326;43.882;2023-04-01T00:35:02;8.90;;;5.20;;
70301;SDS011;57706;56.326;43.882;2023-04-01T00:37:29;7.95;;;5.10;;
70301;SDS011;57706;56.326;43.882;2023-04-01T00:39:55;11.25;;;5.82;;
70301;SDS011;57706;56.326;43.882;2023-04-01T00:42:23;9.32;;;5.60;;
70301;SDS011;57706;56.326;43.882;2023-04-01T00:44:53;9.13;;;5.82;;
70301;SDS011;57706;56.326;43.882;2023-04-01T00:47:20;10.35;;;6.00;;
70301;SDS011;57706;56.326;43.882;2023-04-01T00:49:48;8.38;;;5.30;;
70301;SDS011;57706;56.326;43.882;2023-04-01T00:52:21;11.05;;;5.63;;
70301;SDS011;57706;56.326;43.882;2023-04-01T00:54:52;9.80;;;6.10;;
70301;SDS011;57706;56.326;43.882;2023-04-01T00:57:41;11.85;;;6.50;;
70301;SDS011;57706;56.326;43.882;2023-04-01T01:00:09;10.35;;;5.78;;
70301;SDS011;57706;56.326;43.882;2023-04-01T01:02:40;12.45;;;6.35;;
70301;SDS011;57706;56.326;43.882;2023-04-01T01:05:08;10.00;;;6.10;;
70301;SDS011;57706;56.326;43.882;2023-04-01T01:10:40;9.15;;;5.43;;
70301;SDS011;57706;56.326;43.882;2023-04-01T01:22:11;11.45;;;6.60;;
70301;SDS011;57706;56.326;43.882;2023-04-01T01:25:24;11.63;;;6.93;;
70301;SDS011;57706;56.326;43.882;2023-04-01T01:30:51;12.38;;;5.78;;
70301;SDS011;57706;56.326;43.882;2023-04-01T01:33:35;9.90;;;5.15;;
70301;SDS011;57706;56.326;43.882;2023-04-01T01:36:12;11.07;;;6.10;;
70301;SDS011;57706;56.326;43.882;2023-04-01T01:38:41;11.52;;;6.05;;
70301;SDS011;57706;56.326;43.882;2023-04-01T01:41:07;11.27;;;6.32;;
70301;SDS011;57706;56.326;43.882;2023-04-01T01:43:39;12.48;;;7.05;;
70301;SDS011;57706;56.326;43.882;2023-04-01T01:46:12;8.57;;;5.57;;
70301;SDS011;57706;56.326;43.882;2023-04-01T01:48:42;10.20;;;6.40;;
70301;SDS011;57706;56.326;43.882;2023-04-01T01:51:10;11.95;;;5.95;;
70301;SDS011;57706;56.326;43.882;2023-04-01T01:53:36;11.65;;;6.88;;
70301;SDS011;57706;56.326;43.882;2023-04-01T01:56:03;11.77;;;7.18;;
70301;SDS011;57706;56.326;43.882;2023-04-01T02:01:11;14.20;;;7.63;;
70301;SDS011;57706;56.326;43.882;2023-04-01T02:03:44;12.95;;;6.85;;
70301;SDS011;57706;56.326;43.882;2023-04-01T02:06:12;10.73;;;5.75;;
70301;SDS011;57706;56.326;43.882;2023-04-01T02:08:45;13.98;;;6.90;;
70301;SDS011;57706;56.326;43.882;2023-04-01T02:11:17;11.82;;;5.97;;
70301;SDS011;57706;56.326;43.882;2023-04-01T02:14:06;9.75;;;5.75;;
70301;SDS011;57706;56.326;43.882;2023-04-01T02:19:17;9.20;;;5.70;;
70301;SDS011;57706;56.326;43.882;2023-04-01T02:21:53;9.70;;;6.60;;
70301;SDS011;57706;56.326;43.882;2023-04-01T02:24:23;12.40;;;6.32;;
70301;SDS011;57706;56.326;43.882;2023-04-01T02:26:52;12.13;;;6.65;;
70301;SDS011;57706;56.326;43.882;2023-04-01T02:29:19;9.40;;;5.97;;
70301;SDS011;57706;56.326;43.882;2023-04-01T02:31:47;12.57;;;6.75;;
70301;SDS011;57706;56.326;43.882;2023-04-01T02:34:14;9.88;;;6.47;;
70301;SDS011;57706;56.326;43.882;2023-04-01T02:36:40;10.60;;;6.43;;
70301;SDS011;57706;56.326;43.882;2023-04-01T02:39:07;9.05;;;6.03;;
70301;SDS011;57706;56.326;43.882;2023-04-01T02:41:40;9.73;;;5.78;;
70301;SDS011;57706;56.326;43.882;2023-04-01T02:44:08;14.13;;;7.07;;
70301;SDS011;57706;56.326;43.882;2023-04-01T02:46:35;12.15;;;7.03;;
70301;SDS011;57706;56.326;43.882;2023-04-01T02:49:02;12.07;;;6.43;;
70301;SDS011;57706;56.326;43.882;2023-04-01T02:51:29;11.45;;;6.53;;
70301;SDS011;57706;56.326;43.882;2023-04-01T02:53:55;10.98;;;5.63;;
70301;SDS011;57706;56.326;43.882;2023-04-01T02:56:21;10.95;;;5.93;;
70301;SDS011;57706;56.326;43.882;2023-04-01T02:58:47;11.23;;;6.03;;
70301;SDS011;57706;56.326;43.882;2023-04-01T03:01:14;10.95;;;6.22;;
70301;SDS011;57706;56.326;43.882;2023-04-01T03:03:40;10.90;;;6.10;;
70301;SDS011;57706;56.326;43.882;2023-04-01T03:06:06;13.07;;;6.85;;
70301;SDS011;57706;56.326;43.882;2023-04-01T03:08:34;10.43;;;6.63;;
70301;SDS011;57706;56.326;43.882;2023-04-01T03:11:00;11.23;;;6.53;;
70301;SDS011;57706;56.326;43.882;2023-04-01T03:13:26;10.73;;;6.22;;
70301;SDS011;57706;56.326;43.882;2023-04-01T03:15:52;9.63;;;6.15;;
70301;SDS011;57706;56.326;43.882;2023-04-01T03:18:18;10.63;;;5.68;;
70301;SDS011;57706;56.326;43.882;2023-04-01T03:20:44;11.30;;;6.80;;
70301;SDS011;57706;56.326;43.882;2023-04-01T03:23:10;11.77;;;6.78;;
70301;SDS011;57706;56.326;43.882;2023-04-01T03:25:36;10.10;;;6.40;;
70301;SDS011;57706;56.326;43.882;2023-04-01T03:28:02;10.32;;;6.32;;
70301;SDS011;57706;56.326;43.882;2023-04-01T03:30:28;11.23;;;5.95;;
70301;SDS011;57706;56.326;43.882;2023-04-01T03:32:59;15.15;;;6.82;;
70301;SDS011;57706;56.326;43.882;2023-04-01T03:35:26;15.65;;;7.32;;
70301;SDS011;57706;56.326;43.882;2023-04-01T03:37:52;15.20;;;7.40;;
70301;SDS011;57706;56.326;43.882;2023-04-01T03:40:19;14.73;;;7.13;;
70301;SDS011;57706;56.326;43.882;2023-04-01T03:42:46;15.40;;;7.55;;
70301;SDS011;57706;56.326;43.882;2023-04-01T03:45:13;16.65;;;8.48;;
70301;SDS011;57706;56.326;43.882;2023-04-01T03:47:39;17.73;;;8.25;;
70301;SDS011;57706;56.326;43.882;2023-04-01T03:50:05;12.35;;;6.82;;
70301;SDS011;57706;56.326;43.882;2023-04-01T03:52:32;12.45;;;6.22;;
70301;SDS011;57706;56.326;43.882;2023-04-01T03:54:58;10.73;;;6.35;;
70301;SDS011;57706;56.326;43.882;2023-04-01T03:57:25;11.40;;;6.70;;
70301;SDS011;57706;56.326;43.882;2023-04-01T03:59:53;12.10;;;6.05;;
70301;SDS011;57706;56.326;43.882;2023-04-01T04:02:19;16.73;;;8.38;;
70301;SDS011;57706;56.326;43.882;2023-04-01T04:04:45;16.13;;;7.90;;
70301;SDS011;57706;56.326;43.882;2023-04-01T04:07:11;19.65;;;8.82;;
70301;SDS011;57706;56.326;43.882;2023-04-01T04:10:00;15.57;;;7.65;;
70301;SDS011;57706;56.326;43.882;2023-04-01T04:12:26;13.60;;;8.07;;
70301;SDS011;57706;56.326;43.882;2023-04-01T04:14:52;11.38;;;6.38;;
70301;SDS011;57706;56.326;43.882;2023-04-01T04:17:18;15.43;;;7.55;;
70301;SDS011;57706;56.326;43.882;2023-04-01T04:19:44;13.90;;;7.13;;
70301;SDS011;57706;56.326;43.882;2023-04-01T04:22:10;10.98;;;6.15;;
70301;SDS011;57706;56.326;43.882;2023-04-01T04:24:36;10.73;;;6.22;;
70301;SDS011;57706;56.326;43.882;2023-04-01T04:27:11;9.75;;;5.25;;
70301;SDS011;57706;56.326;43.882;2023-04-01T04:29:46;12.00;;;6.47;;
70301;SDS011;57706;56.326;43.882;2023-04-01T04:32:12;10.95;;;6.43;;
70301;SDS011;57706;56.326;43.882;2023-04-01T04:34:38;10.15;;;5.60;;
70301;SDS011;57706;56.326;43.882;2023-04-01T04:37:04;9.77;;;5.80;;
70301;SDS011;57706;56.326;43.882;2023-04-01T04:39:33;11.63;;;6.30;;
70301;SDS011;57706;56.326;43.882;2023-04-01T04:41:59;9.32;;;5.45;;
70301;SDS011;57706;56.326;43.882;2023-04-01T04:44:25;11.68;;;7.20;;
70301;SDS011;57706;56.326;43.882;2023-04-01T04:46:51;10.25;;;6.43;;
70301;SDS011;57706;56.326;43.882;2023-04-01T04:49:17;10.40;;;6.28;;
70301;SDS011;57706;56.326;43.882;2023-04-01T04:51:44;12.15;;;7.32;;
70301;SDS011;57706;56.326;43.882;2023-04-01T04:54:11;11.50;;;6.30;;
70301;SDS011;57706;56.326;43.882;2023-04-01T04:57:03;12.02;;;6.45;;
70301;SDS011;57706;56.326;43.882;2023-04-01T04:59:33;15.23;;;7.47;;
70301;SDS011;57706;56.326;43.882;2023-04-01T05:02:07;13.25;;;7.68;;
70301;SDS011;57706;56.326;43.882;2023-04-01T05:04:34;12.63;;;7.30;;
70301;SDS011;57706;56.326;43.882;2023-04-01T05:07:02;10.63;;;6.30;;
70301;SDS011;57706;56.326;43.882;2023-04-01T05:09:28;11.27;;;6.82;;
70301;SDS011;57706;56.326;43.882;2023-04-01T05:11:54;12.27;;;6.53;;
70301;SDS011;57706;56.326;43.882;2023-04-01T05:14:21;14.18;;;7.43;;
70301;SDS011;57706;56.326;43.882;2023-04-01T05:17:13;12.32;;;7.07;;
70301;SDS011;57706;56.326;43.882;2023-04-01T05:19:39;12.45;;;7.28;;
70301;SDS011;57706;56.326;43.882;2023-04-01T05:22:06;13.07;;;7.55;;
70301;SDS011;57706;56.326;43.882;2023-04-01T05:24:33;13.02;;;7.97;;
70301;SDS011;57706;56.326;43.882;2023-04-01T05:26:59;12.88;;;6.45;;
70301;SDS011;57706;56.326;43.882;2023-04-01T05:29:26;14.23;;;8.15;;
70301;SDS011;57706;56.326;43.882;2023-04-01T05:31:59;12.63;;;7.15;;
70301;SDS011;57706;56.326;43.882;2023-04-01T05:34:25;11.73;;;7.13;;
70301;SDS011;57706;56.326;43.882;2023-04-01T05:36:51;11.23;;;7.13;;
70301;SDS011;57706;56.326;43.882;2023-04-01T05:39:17;10.43;;;5.57;;
70301;SDS011;57706;56.326;43.882;2023-04-01T05:41:43;10.25;;;6.32;;
70301;SDS011;57706;56.326;43.882;2023-04-01T05:44:11;12.25;;;6.82;;
70301;SDS011;57706;56.326;43.882;2023-04-01T05:46:40;10.98;;;6.75;;
70301;SDS011;57706;56.326;43.882;2023-04-01T05:49:32;9.20;;;5.63;;
70301;SDS011;57706;56.326;43.882;2023-04-01T05:51:59;11.70;;;6.78;;
70301;SDS011;57706;56.326;43.882;2023-04-01T05:54:26;12.10;;;6.68;;
70301;SDS011;57706;56.326;43.882;2023-04-01T05:56:52;13.45;;;7.05;;
70301;SDS011;57706;56.326;43.882;2023-04-01T05:59:19;9.48;;;5.53;;
70301;SDS011;57706;56.326;43.882;2023-04-01T06:01:45;9.82;;;5.07;;
70301;SDS011;57706;56.326;43.882;2023-04-01T06:04:15;9.73;;;5.80;;
70301;SDS011;57706;56.326;43.882;2023-04-01T06:06:42;7.88;;;4.75;;
70301;SDS011;57706;56.326;43.882;2023-04-01T06:09:23;11.55;;;6.05;;
70301;SDS011;57706;56.326;43.882;2023-04-01T06:18:10;13.48;;;6.88;;
70301;SDS011;57706;56.326;43.882;2023-04-01T06:26:57;8.10;;;4.57;;
70301;SDS011;57706;56.326;43.882;2023-04-01T06:32:21;6.25;;;4.68;;
70301;SDS011;57706;56.326;43.882;2023-04-01T06:41:01;5.85;;;4.15;;
70301;SDS011;57706;56.326;43.882;2023-04-01T06:55:44;3.65;;;2.53;;
70301;SDS011;57706;56.326;43.882;2023-04-01T06:58:54;5.32;;;1.95;;
70301;SDS011;57706;56.326;43.882;2023-04-01T07:01:41;4.43;;;2.90;;
70301;SDS011;57706;56.326;43.882;2023-04-01T07:04:13;4.65;;;2.92;;
70301;SDS011;57706;56.326;43.882;2023-04-01T07:06:53;3.63;;;2.83;;
70301;SDS011;57706;56.326;43.882;2023-04-01T07:09:27;4.18;;;2.75;;
70301;SDS011;57706;56.326;43.882;2023-04-01T07:12:44;4.68;;;3.20;;
70301;SDS011;57706;56.326;43.882;2023-04-01T07:21:19;6.75;;;3.72;;
70301;SDS011;57706;56.326;43.882;2023-04-01T07:23:50;4.90;;;3.03;;
70301;SDS011;57706;56.326;43.882;2023-04-01T07:26:35;3.63;;;2.92;;
70301;SDS011;57706;56.326;43.882;2023-04-01T07:29:15;4.68;;;3.00;;
70301;SDS011;57706;56.326;43.882;2023-04-01T07:54:13;3.65;;;2.40;;
70301;SDS011;57706;56.326;43.882;2023-04-01T08:05:49;2.70;;;2.10;;
70301;SDS011;57706;56.326;43.882;2023-04-01T08:20:56;2.70;;;1.90;;
70301;SDS011;57706;56.326;43.882;2023-04-01T08:23:30;2.65;;;1.55;;
70301;SDS011;57706;56.326;43.882;2023-04-01T08:26:04;1.50;;;1.33;;
70301;SDS011;57706;56.326;43.882;2023-04-01T08:28:44;3.08;;;1.70;;
70301;SDS011;57706;56.326;43.882;2023-04-01T08:34:14;2.88;;;1.50;;
70301;SDS011;57706;56.326;43.882;2023-04-01T08:36:45;3.60;;;1.70;;
70301;SDS011;57706;56.326;43.882;2023-04-01T08:45:29;3.72;;;1.83;;
70301;SDS011;57706;56.326;43.882;2023-04-01T08:48:28;4.97;;;2.20;;
70301;SDS011;57706;56.326;43.882;2023-04-01T09:00:33;3.35;;;2.08;;
70301;SDS011;57706;56.326;43.882;2023-04-01T09:06:19;3.13;;;2.00;;
70301;SDS011;57706;56.326;43.882;2023-04-01T09:18:21;1.63;;;1.45;;
70301;SDS011;57706;56.326;43.882;2023-04-01T09:20:44;5.13;;;1.55;;
70301;SDS011;57706;56.326;43.882;2023-04-01T09:40:18;4.80;;;2.60;;
70301;SDS011;57706;56.326;43.882;2023-04-01T09:47:05;3.63;;;2.25;;
70301;SDS011;57706;56.326;43.882;2023-04-01T10:30:16;3.80;;;2.03;;
70301;SDS011;57706;56.326;43.882;2023-04-01T10:39:34;7.35;;;2.10;;
70301;SDS011;57706;56.326;43.882;2023-04-01T10:48:56;3.17;;;1.98;;
70301;SDS011;57706;56.326;43.882;2023-04-01T10:51:59;3.05;;;1.30;;
70301;SDS011;57706;56.326;43.882;2023-04-01T10:58:23;1.33;;;1.23;;
70301;SDS011;57706;56.326;43.882;2023-04-01T11:02:12;1.27;;;1.17;;
70301;SDS011;57706;56.326;43.882;2023-04-01T11:11:10;1.85;;;1.52;;
70301;SDS011;57706;56.326;43.882;2023-04-01T11:22:37;2.90;;;1.80;;
70301;SDS011;57706;56.326;43.882;2023-04-01T11:25:20;3.17;;;2.10;;
70301;SDS011;57706;56.326;43.882;2023-04-01T11:42:04;4.80;;;2.53;;
70301;SDS011;57706;56.326;43.882;2023-04-01T11:45:16;2.53;;;1.80;;
70301;SDS011;57706;56.326;43.882;2023-04-01T11:50:29;2.67;;;1.63;;
70301;SDS011;57706;56.326;43.882;2023-04-01T12:04:06;4.70;;;1.98;;
70301;SDS011;57706;56.326;43.882;2023-04-01T12:12:40;5.05;;;3.13;;
70301;SDS011;57706;56.326;43.882;2023-04-01T12:15:41;3.45;;;2.72;;
70301;SDS011;57706;56.326;43.882;2023-04-01T12:21:19;5.60;;;2.55;;
70301;SDS011;57706;56.326;43.882;2023-04-01T12:26:35;5.03;;;2.15;;
70301;SDS011;57706;56.326;43.882;2023-04-01T12:34:49;4.82;;;2.03;;
70301;SDS011;57706;56.326;43.882;2023-04-01T12:42:54;4.88;;;1.75;;
70301;SDS011;57706;56.326;43.882;2023-04-01T12:45:28;2.10;;;1.70;;
70301;SDS011;57706;56.326;43.882;2023-04-01T12:55:59;6.70;;;2.83;;
70301;SDS011;57706;56.326;43.882;2023-04-01T12:58:38;5.63;;;2.90;;
70301;SDS011;57706;56.326;43.882;2023-04-01T13:01:30;9.10;;;2.72;;
70301;SDS011;57706;56.326;43.882;2023-04-01T13:12:06;9.65;;;3.60;;
70301;SDS011;57706;56.326;43.882;2023-04-01T13:15:01;9.02;;;2.97;;
70301;SDS011;57706;56.326;43.882;2023-04-01T13:17:53;10.02;;;3.30;;
70301;SDS011;57706;56.326;43.882;2023-04-01T13:26:21;8.50;;;3.08;;
70301;SDS011;57706;56.326;43.882;2023-04-01T13:29:15;11.48;;;2.67;;
70301;SDS011;57706;56.326;43.882;2023-04-01T13:39:56;4.78;;;2.75;;
70301;SDS011;57706;56.326;43.882;2023-04-01T13:46:04;4.43;;;2.47;;
70301;SDS011;57706;56.326;43.882;2023-04-01T13:51:30;9.75;;;3.72;;
70301;SDS011;57706;56.326;43.882;2023-04-01T13:56:41;8.50;;;3.20;;
70301;SDS011;57706;56.326;43.882;2023-04-01T14:02:27;6.57;;;2.85;;
70301;SDS011;57706;56.326;43.882;2023-04-01T14:16:53;9.75;;;3.38;;
70301;SDS011;57706;56.326;43.882;2023-04-01T14:19:31;5.47;;;2.95;;
70301;SDS011;57706;56.326;43.882;2023-04-01T14:22:25;6.22;;;2.97;;
70301;SDS011;57706;56.326;43.882;2023-04-01T14:25:17;7.72;;;3.42;;
70301;SDS011;57706;56.326;43.882;2023-04-01T14:31:34;7.78;;;3.35;;
70301;SDS011;57706;56.326;43.882;2023-04-01T14:48:49;3.22;;;2.05;;
70301;SDS011;57706;56.326;43.882;2023-04-01T14:51:36;7.85;;;3.13;;
70301;SDS011;57706;56.326;43.882;2023-04-01T14:56:38;3.95;;;2.58;;
70301;SDS011;57706;56.326;43.882;2023-04-01T15:07:57;7.70;;;3.03;;
70301;SDS011;57706;56.326;43.882;2023-04-01T15:11:03;6.07;;;3.33;;
70301;SDS011;57706;56.326;43.882;2023-04-01T15:16:56;6.53;;;3.20;;
70301;SDS011;57706;56.326;43.882;2023-04-01T15:20:00;5.88;;;3.33;;
70301;SDS011;57706;56.326;43.882;2023-04-01T15:25:30;5.38;;;3.55;;
70301;SDS011;57706;56.326;43.882;2023-04-01T15:39:56;10.43;;;4.22;;
70301;SDS011;57706;56.326;43.882;2023-04-01T15:48:13;11.27;;;4.07;;
70301;SDS011;57706;56.326;43.882;2023-04-01T15:56:55;4.72;;;3.17;;
70301;SDS011;57706;56.326;43.882;2023-04-01T15:59:51;5.05;;;2.90;;
70301;SDS011;57706;56.326;43.882;2023-04-01T16:05:32;5.13;;;2.67;;
70301;SDS011;57706;56.326;43.882;2023-04-01T16:08:19;6.13;;;3.03;;
70301;SDS011;57706;56.326;43.882;2023-04-01T16:11:14;4.85;;;2.92;;
70301;SDS011;57706;56.326;43.882;2023-04-01T16:19:41;6.13;;;3.40;;
70301;SDS011;57706;56.326;43.882;2023-04-01T16:36:08;9.23;;;4.13;;
70301;SDS011;57706;56.326;43.882;2023-04-01T16:41:31;7.47;;;4.10;;
70301;SDS011;57706;56.326;43.882;2023-04-01T16:44:20;7.88;;;4.15;;
70301;SDS011;57706;56.326;43.882;2023-04-01T16:46:50;10.23;;;4.30;;
70301;SDS011;57706;56.326;43.882;2023-04-01T16:55:41;7.28;;;4.30;;
70301;SDS011;57706;56.326;43.882;2023-04-01T16:58:35;7.57;;;4.72;;
70301;SDS011;57706;56.326;43.882;2023-04-01T17:01:07;7.80;;;4.90;;
70301;SDS011;57706;56.326;43.882;2023-04-01T17:03:45;14.52;;;6.18;;
70301;SDS011;57706;56.326;43.882;2023-04-01T17:11:53;14.25;;;5.10;;
70301;SDS011;57706;56.326;43.882;2023-04-01T17:23:23;12.85;;;5.40;;
70301;SDS011;57706;56.326;43.882;2023-04-01T17:25:55;15.32;;;5.47;;
70301;SDS011;57706;56.326;43.882;2023-04-01T17:50:21;17.38;;;5.47;;
70301;SDS011;57706;56.326;43.882;2023-04-01T17:58:45;15.85;;;6.45;;
70301;SDS011;57706;56.326;43.882;2023-04-01T18:01:40;11.30;;;5.95;;
70301;SDS011;57706;56.326;43.882;2023-04-01T18:10:31;25.40;;;8.32;;
70301;SDS011;57706;56.326;43.882;2023-04-01T18:15:48;24.92;;;10.63;;
70301;SDS011;57706;56.326;43.882;2023-04-01T18:29:41;19.02;;;7.10;;
70301;SDS011;57706;56.326;43.882;2023-04-01T18:35:20;15.57;;;7.38;;
70301;SDS011;57706;56.326;43.882;2023-04-01T18:38:25;22.05;;;8.43;;
70301;SDS011;57706;56.326;43.882;2023-04-01T18:43:12;18.25;;;7.50;;
70301;SDS011;57706;56.326;43.882;2023-04-01T18:49:11;20.80;;;8.07;;
70301;SDS011;57706;56.326;43.882;2023-04-01T18:51:50;15.30;;;7.25;;
70301;SDS011;57706;56.326;43.882;2023-04-01T18:54:30;22.23;;;9.15;;
70301;SDS011;57706;56.326;43.882;2023-04-01T18:57:04;21.25;;;7.35;;
70301;SDS011;57706;56.326;43.882;2023-04-01T18:59:42;26.42;;;8.20;;
70301;SDS011;57706;56.326;43.882;2023-04-01T19:05:14;25.55;;;9.07;;
70301;SDS011;57706;56.326;43.882;2023-04-01T19:07:54;19.42;;;8.38;;
70301;SDS011;57706;56.326;43.882;2023-04-01T19:21:04;21.75;;;7.90;;
70301;SDS011;57706;56.326;43.882;2023-04-01T19:29:02;12.45;;;6.60;;
70301;SDS011;57706;56.326;43.882;2023-04-01T19:31:52;13.60;;;6.60;;
70301;SDS011;57706;56.326;43.882;2023-04-01T19:34:22;11.07;;;6.10;;
70301;SDS011;57706;56.326;43.882;2023-04-01T19:57:30;10.88;;;4.80;;
70301;SDS011;57706;56.326;43.882;2023-04-01T19:59:42;12.13;;;5.22;;
70301;SDS011;57706;56.326;43.882;2023-04-01T20:07:52;11.95;;;4.47;;
70301;SDS011;57706;56.326;43.882;2023-04-01T20:10:27;10.45;;;4.43;;
70301;SDS011;57706;56.326;43.882;2023-04-01T20:16:07;12.88;;;5.93;;
70301;SDS011;57706;56.326;43.882;2023-04-01T20:18:40;9.82;;;5.90;;
70301;SDS011;57706;56.326;43.882;2023-04-01T20:24:21;15.38;;;6.25;;
70301;SDS011;57706;56.326;43.882;2023-04-01T20:27:14;13.65;;;7.30;;
70301;SDS011;57706;56.326;43.882;2023-04-01T20:35:39;12.40;;;6.60;;
70301;SDS011;57706;56.326;43.882;2023-04-01T20:41:25;11.98;;;6.43;;
70301;SDS011;57706;56.326;43.882;2023-04-01T20:49:56;13.32;;;5.65;;
70301;SDS011;57706;56.326;43.882;2023-04-01T21:00:52;14.40;;;6.95;;
70301;SDS011;57706;56.326;43.882;2023-04-01T21:03:26;14.40;;;5.50;;
70301;SDS011;57706;56.326;43.882;2023-04-01T21:06:07;11.38;;;6.10;;
70301;SDS011;57706;56.326;43.882;2023-04-01T21:14:35;10.45;;;5.90;;
70301;SDS011;57706;56.326;43.882;2023-04-01T21:17:16;10.45;;;5.82;;
70301;SDS011;57706;56.326;43.882;2023-04-01T21:25:50;9.48;;;5.30;;
70301;SDS011;57706;56.326;43.882;2023-04-01T21:42:41;7.55;;;5.00;;
70301;SDS011;57706;56.326;43.882;2023-04-01T21:45:35;7.78;;;4.68;;
70301;SDS011;57706;56.326;43.882;2023-04-01T21:48:34;8.43;;;5.25;;
70301;SDS011;57706;56.326;43.882;2023-04-01T21:57:17;10.50;;;5.82;;
70301;SDS011;57706;56.326;43.882;2023-04-01T22:05:09;9.45;;;6.53;;
70301;SDS011;57706;56.326;43.882;2023-04-01T22:08:11;14.70;;;8.50;;
70301;SDS011;57706;56.326;43.882;2023-04-01T22:11:10;10.10;;;5.53;;
70301;SDS011;57706;56.326;43.882;2023-04-01T22:16:48;9.73;;;6.10;;
70301;SDS011;57706;56.326;43.882;2023-04-01T22:25:32;10.75;;;5.95;;
70301;SDS011;57706;56.326;43.882;2023-04-01T22:28:05;9.82;;;6.30;;
70301;SDS011;57706;56.326;43.882;2023-04-01T22:33:16;10.90;;;6.28;;
70301;SDS011;57706;56.326;43.882;2023-04-01T22:36:03;14.43;;;6.07;;
70301;SDS011;57706;56.326;43.882;2023-04-01T22:43:39;11.65;;;6.40;;
70301;SDS011;57706;56.326;43.882;2023-04-01T22:51:28;9.65;;;5.88;;
70301;SDS011;57706;56.326;43.882;2023-04-01T22:56:48;10.20;;;6.85;;
70301;SDS011;57706;56.326;43.882;2023-04-01T22:59:29;15.02;;;8.77;;
70301;SDS011;57706;56.326;43.882;2023-04-01T23:02:06;13.88;;;8.32;;
70301;SDS011;57706;56.326;43.882;2023-04-01T23:05:00;17.33;;;8.63;;
70301;SDS011;57706;56.326;43.882;2023-04-01T23:10:03;12.05;;;7.30;;
70301;SDS011;57706;56.326;43.882;2023-04-01T23:12:37;13.82;;;7.57;;
70301;SDS011;57706;56.326;43.882;2023-04-01T23:15:10;11.02;;;7.00;;
70301;SDS011;57706;56.326;43.882;2023-04-01T23:18:02;11.52;;;7.05;;
70301;SDS011;57706;56.326;43.882;2023-04-01T23:20:53;10.85;;;6.78;;
70301;SDS011;57706;56.326;43.882;2023-04-01T23:23:39;12.50;;;7.05;;
70301;SDS011;57706;56.326;43.882;2023-04-01T23:26:43;13.07;;;6.65;;
70301;SDS011;57706;56.326;43.882;2023-04-01T23:29:14;11.77;;;6.63;;
70301;SDS011;57706;56.326;43.882;2023-04-01T23:31:45;10.65;;;5.90;;
70301;SDS011;57706;56.326;43.882;2023-04-01T23:36:48;10.38;;;5.80;;
70301;SDS011;57706;56.326;43.882;2023-04-01T23:41:49;10.88;;;5.47;;
70301;SDS011;57706;56.326;43.882;2023-04-01T23:44:18;9.23;;;5.53;;
70301;SDS011;57706;56.326;43.882;2023-04-01T23:46:46;8.45;;;5.22;;
70301;SDS011;57706;56.326;43.882;2023-04-01T23:49:17;9.10;;;5.80;;
70301;SDS011;57706;56.326;43.882;2023-04-01T23:51:50;8.55;;;5.60;;
70301;SDS011;57706;56.326;43.882;2023-04-01T23:54:29;9.30;;;5.53;;
70301;SDS011;57706;56.326;43.882;2023-04-01T23:56:58;10.05;;;5.95;;
70301;SDS011;57706;56.326;43.882;2023-04-01T23:59:32;10.77;;;5.95;;
